createdAt,value
2018-07-19T00:01:41.165Z,101313.80
2018-07-19T00:04:08.875Z,101317.31
2018-07-19T00:06:36.586Z,101318.52
2018-07-19T00:09:06.545Z,101319.59
2018-07-19T00:11:34.266Z,101311.06
2018-07-19T00:14:01.986Z,101312.13
2018-07-19T00:16:29.698Z,101314.47
2018-07-19T00:18:57.404Z,101321.36
2018-07-19T00:21:25.090Z,101314.56
2018-07-19T00:23:52.777Z,101314.69
2018-07-19T00:26:20.439Z,101315.30
2018-07-19T00:28:48.134Z,101317.28
2018-07-19T00:31:15.816Z,101325.43
2018-07-19T00:33:43.521Z,101316.86
2018-07-19T00:36:11.185Z,101316.58
2018-07-19T00:38:38.884Z,101317.89
2018-07-19T00:41:06.619Z,101318.47
2018-07-19T00:43:34.295Z,101319.23
2018-07-19T00:46:01.996Z,101316.79
2018-07-19T00:48:29.721Z,101318.37
2018-07-19T00:50:57.417Z,101314.29
2018-07-19T00:53:25.106Z,101314.01
2018-07-19T00:55:52.776Z,101317.78
2018-07-19T00:58:20.477Z,101313.70
2018-07-19T01:00:48.200Z,101317.54
2018-07-19T01:03:15.877Z,101321.17
2018-07-19T01:05:43.694Z,101323.16
2018-07-19T01:08:11.400Z,101329.05
2018-07-19T01:10:39.102Z,101328.97
2018-07-19T01:13:07.153Z,101318.50
2018-07-19T01:15:34.858Z,101312.84
2018-07-19T01:18:03.441Z,101321.81
2018-07-19T01:20:31.132Z,101314.30
2018-07-19T01:22:58.849Z,101311.62
2018-07-19T01:25:26.545Z,101308.80
2018-07-19T01:27:54.393Z,101317.20
2018-07-19T01:30:22.140Z,101313.06
2018-07-19T01:32:49.825Z,101314.05
2018-07-19T01:35:17.520Z,101314.59
2018-07-19T01:37:45.250Z,101272.78
2018-07-19T01:40:12.922Z,101321.08
2018-07-19T01:42:41.736Z,101314.66
2018-07-19T01:45:10.129Z,101317.98
2018-07-19T01:47:37.882Z,101318.84
2018-07-19T01:50:06.718Z,101316.57
2018-07-19T01:52:34.489Z,101315.75
2018-07-19T01:55:02.203Z,101314.27
2018-07-19T01:57:29.908Z,101319.27
2018-07-19T01:59:57.654Z,101320.17
2018-07-19T02:02:25.258Z,101318.72
2018-07-19T02:04:52.973Z,101317.89
2018-07-19T02:07:20.834Z,101310.38
2018-07-19T02:09:48.562Z,101307.89
2018-07-19T02:12:16.211Z,101310.57
2018-07-19T02:14:43.896Z,101306.67
2018-07-19T02:17:11.594Z,101307.19
2018-07-19T02:19:39.273Z,101304.16
2018-07-19T02:22:06.973Z,101298.17
2018-07-19T02:24:34.670Z,101298.20
2018-07-19T02:27:02.345Z,101299.94
2018-07-19T02:29:30.201Z,101301.13
2018-07-19T02:31:57.975Z,101297.50
2018-07-19T02:34:25.673Z,101300.64
2018-07-19T02:36:53.393Z,101291.65
2018-07-19T02:39:21.093Z,101289.57
2018-07-19T02:41:48.830Z,101291.75
2018-07-19T02:44:16.701Z,101295.42
2018-07-19T02:46:44.672Z,101288.42
2018-07-19T02:49:12.810Z,101291.45
2018-07-19T02:51:41.380Z,101292.84
2018-07-19T02:54:09.377Z,101298.70
2018-07-19T02:56:37.047Z,101305.84
2018-07-19T02:59:04.862Z,101303.16
2018-07-19T03:01:32.547Z,101304.07
2018-07-19T03:04:00.315Z,101308.25
2018-07-19T03:06:28.012Z,101301.78
2018-07-19T03:08:55.782Z,101300.72
2018-07-19T03:11:23.831Z,101307.92
2018-07-19T03:13:51.513Z,101304.94
2018-07-19T03:16:19.273Z,101306.35
2018-07-19T03:18:46.962Z,101302.61
2018-07-19T03:21:14.658Z,101311.98
2018-07-19T03:23:42.490Z,101305.59
2018-07-19T03:26:10.411Z,101302.22
2018-07-19T03:28:38.074Z,101313.52
2018-07-19T03:31:05.922Z,101310.22
2018-07-19T03:33:33.547Z,101318.27
2018-07-19T03:36:01.222Z,101312.48
2018-07-19T03:38:28.921Z,101311.99
2018-07-19T03:40:56.667Z,101307.77
2018-07-19T03:43:24.380Z,101316.16
2018-07-19T03:45:52.111Z,101317.47
2018-07-19T03:48:19.815Z,101312.88
2018-07-19T03:50:47.513Z,101310.97
2018-07-19T03:53:15.218Z,101315.98
2018-07-19T03:55:42.921Z,101319.55
2018-07-19T03:58:10.637Z,101319.67
2018-07-19T04:00:38.336Z,101326.38
2018-07-19T04:03:06.018Z,101332.48
2018-07-19T04:05:33.700Z,101329.91
2018-07-19T04:08:01.385Z,101335.55
2018-07-19T04:10:29.075Z,101334.39
2018-07-19T04:12:56.782Z,101339.41
2018-07-19T04:15:24.454Z,101329.82
2018-07-19T04:17:55.917Z,101331.92
2018-07-19T04:20:31.507Z,101337.08
2018-07-19T04:22:59.270Z,101334.77
2018-07-19T04:25:27.315Z,101332.36
2018-07-19T04:27:55.838Z,101330.52
2018-07-19T04:30:23.494Z,101329.38
2018-07-19T04:32:51.172Z,101324.06
2018-07-19T04:35:19.426Z,101319.42
2018-07-19T04:37:47.148Z,101316.02
2018-07-19T04:40:14.941Z,101316.63
2018-07-19T04:42:42.751Z,101314.36
2018-07-19T04:45:10.467Z,101312.52
2018-07-19T04:47:38.181Z,101312.39
2018-07-19T04:50:05.901Z,101304.63
2018-07-19T04:52:33.638Z,101314.09
2018-07-19T04:55:01.322Z,101303.69
2018-07-19T04:57:29.021Z,101301.70
2018-07-19T04:59:56.730Z,101299.64
2018-07-19T05:02:24.429Z,101298.29
2018-07-19T05:04:52.113Z,101303.50
2018-07-19T05:07:19.811Z,101260.27
2018-07-19T05:09:47.898Z,101304.98
2018-07-19T05:12:15.632Z,101297.44
2018-07-19T05:14:43.478Z,101302.00
2018-07-19T05:17:11.203Z,101294.13
2018-07-19T05:19:38.917Z,101294.95
2018-07-19T05:22:06.644Z,101288.88
2018-07-19T05:24:34.322Z,101290.91
2018-07-19T05:27:02.044Z,101282.47
2018-07-19T05:29:29.719Z,101279.77
2018-07-19T05:31:57.416Z,101279.78
2018-07-19T05:34:25.178Z,101281.95
2018-07-19T05:36:52.844Z,101276.55
2018-07-19T05:39:20.629Z,101282.80
2018-07-19T05:41:48.321Z,101278.41
2018-07-19T05:44:16.041Z,101282.13
2018-07-19T05:46:43.713Z,101275.03
2018-07-19T05:49:11.444Z,101281.60
2018-07-19T05:51:39.316Z,101278.39
2018-07-19T05:54:07.045Z,101277.36
2018-07-19T05:56:34.849Z,101276.37
2018-07-19T05:59:02.600Z,101277.04
2018-07-19T06:01:30.281Z,101274.98
2018-07-19T06:03:57.978Z,101271.81
2018-07-19T06:06:25.681Z,101267.27
2018-07-19T06:08:53.368Z,101268.63
2018-07-19T06:11:21.084Z,101271.30
2018-07-19T06:13:48.784Z,101270.29
2018-07-19T06:16:17.058Z,101265.91
2018-07-19T06:18:44.795Z,101268.77
2018-07-19T06:21:12.560Z,101268.23
2018-07-19T06:23:40.294Z,101266.59
2018-07-19T06:26:08.029Z,101265.23
2018-07-19T06:28:35.726Z,101267.05
2018-07-19T06:31:03.458Z,101265.69
2018-07-19T06:33:31.123Z,101263.76
2018-07-19T06:35:59.028Z,101263.25
2018-07-19T06:38:26.822Z,101267.52
2018-07-19T06:40:54.593Z,101264.93
2018-07-19T06:43:22.310Z,101267.20
2018-07-19T06:45:50.071Z,101261.11
2018-07-19T06:48:17.801Z,101262.89
2018-07-19T06:50:45.519Z,101258.66
2018-07-19T06:53:13.227Z,101259.86
2018-07-19T06:55:40.956Z,101263.73
2018-07-19T06:58:08.665Z,101265.52
2018-07-19T07:00:36.362Z,101267.23
2018-07-19T07:03:04.089Z,101262.45
2018-07-19T07:05:31.796Z,101267.70
2018-07-19T07:07:59.493Z,101265.44
2018-07-19T07:10:27.179Z,101265.36
2018-07-19T07:12:54.898Z,101268.39
2018-07-19T07:15:22.620Z,101271.08
2018-07-19T07:17:50.313Z,101268.81
2018-07-19T07:20:17.974Z,101256.70
2018-07-19T07:22:45.697Z,101267.91
2018-07-19T07:25:13.377Z,101264.23
2018-07-19T07:27:41.130Z,101258.30
2018-07-19T07:30:08.901Z,101260.46
2018-07-19T07:32:36.606Z,101255.20
2018-07-19T07:35:05.230Z,101261.09
2018-07-19T07:37:33.805Z,101261.97
2018-07-19T07:40:01.528Z,101256.09
2018-07-19T07:42:29.219Z,101258.14
2018-07-19T07:44:56.914Z,101254.22
2018-07-19T07:47:24.615Z,101259.14
2018-07-19T07:49:52.310Z,101255.77
2018-07-19T07:52:20.038Z,101257.41
2018-07-19T07:54:47.745Z,101261.74
2018-07-19T07:57:15.428Z,101261.80
2018-07-19T07:59:43.278Z,101260.36
2018-07-19T08:02:11.026Z,101259.69
2018-07-19T08:04:39.085Z,101257.25
2018-07-19T08:07:06.801Z,101251.18
2018-07-19T08:09:34.501Z,101251.67
2018-07-19T08:12:02.340Z,101237.16
2018-07-19T08:14:30.129Z,101262.73
2018-07-19T08:16:57.833Z,101256.48
2018-07-19T08:19:25.639Z,101254.18
2018-07-19T08:21:53.376Z,101255.65
2018-07-19T08:24:21.088Z,101255.45
2018-07-19T08:26:48.777Z,101261.03
2018-07-19T08:29:16.443Z,101257.45
2018-07-19T08:31:44.165Z,101261.50
2018-07-19T08:34:11.870Z,101259.94
2018-07-19T08:36:39.566Z,101267.05
2018-07-19T08:39:10.438Z,101265.02
2018-07-19T08:41:38.113Z,101267.20
2018-07-19T08:44:05.835Z,101268.34
2018-07-19T08:46:33.519Z,101266.45
2018-07-19T08:49:01.388Z,101270.31
2018-07-19T08:51:29.571Z,101264.56
2018-07-19T08:53:57.277Z,101272.36
2018-07-19T08:56:25.018Z,101240.91
2018-07-19T08:58:52.670Z,101263.22
2018-07-19T09:01:20.385Z,101265.31
2018-07-19T09:03:48.055Z,101270.39
2018-07-19T09:06:15.754Z,101272.38
2018-07-19T09:08:43.470Z,101271.52
2018-07-19T09:11:11.168Z,101278.14
2018-07-19T09:13:38.865Z,101275.45
2018-07-19T09:16:06.778Z,101272.70
2018-07-19T09:18:34.451Z,101265.40
2018-07-19T09:21:02.154Z,101277.71
2018-07-19T09:23:29.841Z,101271.61
2018-07-19T09:25:57.505Z,101266.53
2018-07-19T09:28:25.179Z,101264.16
2018-07-19T09:30:52.898Z,101260.56
2018-07-19T09:33:20.894Z,101262.08
2018-07-19T09:35:48.579Z,101264.42
2018-07-19T09:38:16.376Z,101261.22
2018-07-19T09:40:44.045Z,101264.16
2018-07-19T09:43:11.707Z,101253.97
2018-07-19T09:45:39.410Z,101260.83
2018-07-19T09:48:07.082Z,101260.14
2018-07-19T09:50:34.792Z,101259.58
2018-07-19T09:53:02.477Z,101261.52
2018-07-19T09:55:30.167Z,101256.21
2018-07-19T09:57:57.840Z,101258.29
2018-07-19T10:00:31.087Z,101261.39
2018-07-19T10:02:58.780Z,101255.68
2018-07-19T10:05:26.493Z,101252.61
2018-07-19T10:07:54.274Z,101255.68
2018-07-19T10:10:22.000Z,101260.79
2018-07-19T10:12:49.767Z,101252.81
2018-07-19T10:15:17.513Z,101250.23
2018-07-19T10:17:45.230Z,101249.61
2018-07-19T10:20:12.969Z,101252.45
2018-07-19T10:22:40.682Z,101252.64
2018-07-19T10:25:08.714Z,101249.47
2018-07-19T10:27:36.436Z,101254.42
2018-07-19T10:30:05.579Z,101253.70
2018-07-19T10:32:33.316Z,101261.61
2018-07-19T10:35:00.985Z,101259.38
2018-07-19T10:37:28.704Z,101258.75
2018-07-19T10:39:56.449Z,101259.96
2018-07-19T10:42:24.143Z,101259.70
2018-07-19T10:44:51.886Z,101253.63
2018-07-19T10:47:19.605Z,101249.81
2018-07-19T10:49:47.267Z,101255.06
2018-07-19T10:52:14.953Z,101255.16
2018-07-19T10:54:42.832Z,101258.55
2018-07-19T10:57:10.544Z,101252.16
2018-07-19T10:59:38.224Z,101252.84
2018-07-19T11:02:05.974Z,101256.84
2018-07-19T11:04:33.717Z,101245.65
2018-07-19T11:07:01.391Z,101240.27
2018-07-19T11:09:29.095Z,101240.14
2018-07-19T11:11:56.778Z,101243.37
2018-07-19T11:14:24.502Z,101237.60
2018-07-19T11:16:52.198Z,101235.97
2018-07-19T11:19:19.897Z,101237.86
2018-07-19T11:21:47.621Z,101241.55
2018-07-19T11:24:15.371Z,101243.59
2018-07-19T11:26:43.087Z,101245.31
2018-07-19T11:29:10.829Z,101246.11
2018-07-19T11:31:38.544Z,101237.33
2018-07-19T11:34:06.334Z,101241.05
2018-07-19T11:36:34.024Z,101245.61
2018-07-19T11:39:01.708Z,101250.94
2018-07-19T11:41:29.467Z,101256.85
2018-07-19T11:43:57.316Z,101254.88
2018-07-19T11:46:24.990Z,101263.58
2018-07-19T11:48:52.651Z,101262.67
2018-07-19T11:51:20.343Z,101264.16
2018-07-19T11:53:48.037Z,101264.69
2018-07-19T11:56:15.734Z,101263.17
2018-07-19T11:58:43.576Z,101263.59
2018-07-19T12:01:11.322Z,101272.40
2018-07-19T12:03:39.041Z,101273.47
2018-07-19T12:06:06.782Z,101275.64
2018-07-19T12:08:34.490Z,101278.15
2018-07-19T12:11:02.182Z,101276.14
2018-07-19T12:13:29.889Z,101278.14
2018-07-19T12:15:57.598Z,101273.18
2018-07-19T12:18:25.294Z,101274.08
2018-07-19T12:20:53.013Z,101271.17
2018-07-19T12:23:21.144Z,101267.27
2018-07-19T12:25:48.866Z,101272.45
2018-07-19T12:28:16.537Z,101266.05
2018-07-19T12:30:44.240Z,101265.34
2018-07-19T12:33:11.950Z,101263.99
2018-07-19T12:35:39.764Z,101272.73
2018-07-19T12:38:07.484Z,101282.49
2018-07-19T12:40:35.189Z,101284.67
2018-07-19T12:43:02.857Z,101283.64
2018-07-19T12:45:30.581Z,101287.79
2018-07-19T12:47:58.251Z,101292.02
2018-07-19T12:50:26.129Z,101296.45
2018-07-19T12:52:53.812Z,101299.07
2018-07-19T12:55:21.471Z,101306.58
2018-07-19T12:57:49.223Z,101307.98
2018-07-19T13:00:16.954Z,101307.56
2018-07-19T13:02:44.610Z,101301.66
2018-07-19T13:05:12.318Z,101260.59
2018-07-19T13:07:40.001Z,101290.83
2018-07-19T13:10:07.717Z,101295.99
2018-07-19T13:12:35.577Z,101294.84
2018-07-19T13:15:04.759Z,101298.02
2018-07-19T13:17:32.421Z,101301.98
2018-07-19T13:20:00.529Z,101304.86
2018-07-19T13:22:28.206Z,101300.53
2018-07-19T13:24:55.922Z,101296.16
2018-07-19T13:27:23.650Z,101293.33
2018-07-19T13:29:51.405Z,101295.70
2018-07-19T13:32:19.078Z,101297.96
2018-07-19T13:34:46.856Z,101296.94
2018-07-19T13:37:14.562Z,101295.83
2018-07-19T13:39:42.224Z,101296.20
2018-07-19T13:42:09.950Z,101288.06
2018-07-19T13:44:37.664Z,101289.75
2018-07-19T13:47:05.348Z,101293.00
2018-07-19T13:49:33.076Z,101299.97
2018-07-19T13:52:00.773Z,101290.48
2018-07-19T13:54:38.596Z,101284.75
2018-07-19T13:57:06.308Z,101281.01
2018-07-19T13:59:33.965Z,101280.36
2018-07-19T14:02:01.899Z,101282.66
2018-07-19T14:04:29.565Z,101273.05
2018-07-19T14:06:57.242Z,101269.69
2018-07-19T14:09:24.979Z,101268.22
2018-07-19T14:11:52.658Z,101263.59
2018-07-19T14:14:20.762Z,101267.64
2018-07-19T14:16:48.428Z,101259.09
2018-07-19T14:19:16.142Z,101265.56
2018-07-19T14:21:43.803Z,101267.79
2018-07-19T14:24:11.626Z,101266.44
2018-07-19T14:26:39.318Z,101262.17
2018-07-19T14:29:07.001Z,101262.26
2018-07-19T14:31:34.736Z,101263.00
2018-07-19T14:34:02.438Z,101267.63
2018-07-19T14:36:30.172Z,101260.97
2018-07-19T14:38:57.883Z,101263.45
2018-07-19T14:41:25.632Z,101254.74
2018-07-19T14:43:53.373Z,101259.12
2018-07-19T14:46:21.533Z,101258.31
2018-07-19T14:48:49.249Z,101248.94
2018-07-19T14:51:16.981Z,101252.14
2018-07-19T14:53:44.682Z,101254.74
2018-07-19T14:56:12.397Z,101249.70
2018-07-19T14:58:40.105Z,101254.36
2018-07-19T15:01:07.881Z,101262.59
2018-07-19T15:03:35.777Z,101256.58
2018-07-19T15:06:03.523Z,101254.58
2018-07-19T15:08:31.244Z,101257.94
2018-07-19T15:10:58.958Z,101261.45
2018-07-19T15:13:26.661Z,101258.05
2018-07-19T15:15:54.364Z,101261.23
2018-07-19T15:18:22.066Z,101254.58
2018-07-19T15:20:49.801Z,101247.95
2018-07-19T15:23:17.545Z,101251.77
2018-07-19T15:25:45.281Z,101253.66
2018-07-19T15:28:13.090Z,101248.45
2018-07-19T15:30:40.808Z,101250.79
2018-07-19T15:33:08.514Z,101255.18
2018-07-19T15:35:36.210Z,101257.52
2018-07-19T15:38:04.080Z,101261.94
2018-07-19T15:40:31.771Z,101258.38
2018-07-19T15:42:59.461Z,101255.71
2018-07-19T15:45:27.246Z,101255.50
2018-07-19T15:47:54.973Z,101257.23
2018-07-19T15:50:22.711Z,101261.13
2018-07-19T15:52:50.392Z,101264.99
2018-07-19T15:55:18.078Z,101257.23
2018-07-19T15:57:45.796Z,101263.19
2018-07-19T16:00:13.554Z,101264.05
2018-07-19T16:02:41.321Z,101263.03
2018-07-19T16:05:09.156Z,101262.00
2018-07-19T16:07:36.887Z,101262.75
2018-07-19T16:10:04.675Z,101266.44
2018-07-19T16:12:32.396Z,101261.34
2018-07-19T16:15:00.091Z,101260.32
2018-07-19T16:17:27.792Z,101254.24
2018-07-19T16:19:55.511Z,101254.42
2018-07-19T16:22:23.569Z,101254.24
2018-07-19T16:24:51.305Z,101254.91
2018-07-19T16:27:19.045Z,101252.52
2018-07-19T16:29:46.746Z,101261.50
2018-07-19T16:32:14.451Z,101253.17
2018-07-19T16:34:42.135Z,101249.64
2018-07-19T16:37:09.818Z,101250.30
2018-07-19T16:39:37.528Z,101257.23
2018-07-19T16:42:05.234Z,101254.91
2018-07-19T16:44:32.890Z,101254.73
2018-07-19T16:47:00.682Z,101254.36
2018-07-19T16:49:28.377Z,101249.48
2018-07-19T16:51:56.132Z,101252.72
2018-07-19T16:54:23.810Z,101258.14
2018-07-19T16:56:51.525Z,101251.53
2018-07-19T16:59:19.300Z,101254.91
2018-07-19T17:01:46.997Z,101259.66
2018-07-19T17:04:14.698Z,101251.70
2018-07-19T17:06:42.404Z,101253.44
2018-07-19T17:09:10.985Z,101251.42
2018-07-19T17:11:45.384Z,101254.30
2018-07-19T17:14:13.063Z,101255.64
2018-07-19T17:16:40.731Z,101262.91
2018-07-19T17:19:08.438Z,101264.52
2018-07-19T17:21:36.139Z,101264.31
2018-07-19T17:24:03.868Z,101265.88
2018-07-19T17:26:31.661Z,101272.31
2018-07-19T17:28:59.697Z,101276.05
2018-07-19T17:31:27.374Z,101280.48
2018-07-19T17:33:55.092Z,101280.85
2018-07-19T17:36:22.744Z,101280.86
2018-07-19T17:38:50.441Z,101286.52
2018-07-19T17:41:18.186Z,101285.98
2018-07-19T17:43:45.908Z,101291.02
2018-07-19T17:46:13.600Z,101291.25
2018-07-19T17:48:41.313Z,101290.89
2018-07-19T17:51:09.037Z,101296.54
2018-07-19T17:53:36.728Z,101296.18
2018-07-19T17:56:04.447Z,101296.88
2018-07-19T17:58:32.133Z,101301.27
2018-07-19T18:00:59.881Z,101297.20
2018-07-19T18:03:27.552Z,101298.92
2018-07-19T18:05:55.258Z,101299.25
2018-07-19T18:08:22.956Z,101287.77
2018-07-19T18:10:50.920Z,101298.09
2018-07-19T18:13:18.606Z,101301.72
2018-07-19T18:15:46.285Z,101303.44
2018-07-19T18:18:13.956Z,101309.67
2018-07-19T18:20:41.674Z,101306.85
2018-07-19T18:23:09.460Z,101306.83
2018-07-19T18:25:37.154Z,101309.51
2018-07-19T18:28:05.164Z,101313.25
2018-07-19T18:30:32.848Z,101316.86
2018-07-19T18:33:00.549Z,101316.97
2018-07-19T18:35:28.229Z,101314.77
2018-07-19T18:37:55.956Z,101313.27
2018-07-19T18:40:23.618Z,101312.91
2018-07-19T18:42:51.299Z,101309.94
2018-07-19T18:45:18.994Z,101306.53
2018-07-19T18:47:46.705Z,101305.84
2018-07-19T18:50:14.510Z,101304.66
2018-07-19T18:52:42.167Z,101301.87
2018-07-19T18:55:09.850Z,101297.62
2018-07-19T18:57:37.525Z,101301.53
2018-07-19T19:00:05.565Z,101301.36
2018-07-19T19:02:33.297Z,101309.33
2018-07-19T19:05:00.973Z,101312.06
2018-07-19T19:07:28.690Z,101311.05
2018-07-19T19:09:56.396Z,101310.91
2018-07-19T19:12:24.105Z,101311.58
2018-07-19T19:14:51.816Z,101312.63
2018-07-19T19:17:19.520Z,101315.51
2018-07-19T19:19:47.189Z,101314.31
2018-07-19T19:22:14.860Z,101312.81
2018-07-19T19:24:42.566Z,101304.54
2018-07-19T19:27:10.265Z,101308.80
2018-07-19T19:29:37.981Z,101305.23
2018-07-19T19:32:05.751Z,101311.16
2018-07-19T19:34:33.438Z,101313.98
2018-07-19T19:37:01.168Z,101308.77
2018-07-19T19:39:28.865Z,101312.80
2018-07-19T19:41:56.577Z,101310.28
2018-07-19T19:44:24.318Z,101307.92
2018-07-19T19:46:51.981Z,101312.50
2018-07-19T19:49:19.724Z,101314.20
2018-07-19T19:51:47.458Z,101309.80
2018-07-19T19:54:15.196Z,101314.02
2018-07-19T19:56:42.882Z,101313.86
2018-07-19T19:59:10.561Z,101312.84
2018-07-19T20:01:38.288Z,101316.38
2018-07-19T20:04:06.258Z,101318.90
2018-07-19T20:06:33.961Z,101320.92
2018-07-19T20:09:01.637Z,101319.09
2018-07-19T20:11:29.375Z,101328.87
2018-07-19T20:13:57.053Z,101318.23
2018-07-19T20:16:24.726Z,101327.34
2018-07-19T20:18:52.392Z,101331.72
2018-07-19T20:21:20.114Z,101331.38
2018-07-19T20:23:47.798Z,101330.86
2018-07-19T20:26:15.465Z,101330.66
2018-07-19T20:28:43.206Z,101337.75
2018-07-19T20:31:11.069Z,101343.47
2018-07-19T20:33:38.722Z,101342.80
2018-07-19T20:36:06.383Z,101333.70
2018-07-19T20:38:34.091Z,101343.14
2018-07-19T20:41:01.804Z,101343.08
2018-07-19T20:43:29.500Z,101344.29
2018-07-19T20:45:57.175Z,101334.70
2018-07-19T20:48:24.905Z,101343.77
2018-07-19T20:50:52.610Z,101345.45
2018-07-19T20:53:20.373Z,101340.25
2018-07-19T20:55:48.045Z,101339.57
2018-07-19T20:58:15.703Z,101335.86
2018-07-19T21:00:43.356Z,101331.29
2018-07-19T21:03:11.057Z,101340.72
2018-07-19T21:05:38.728Z,101343.75
2018-07-19T21:08:06.388Z,101337.48
2018-07-19T21:10:34.073Z,101335.50
2018-07-19T21:13:01.739Z,101336.32
2018-07-19T21:15:29.429Z,101333.09
2018-07-19T21:17:57.105Z,101327.19
2018-07-19T21:20:24.755Z,101332.16
2018-07-19T21:22:52.429Z,101323.75
2018-07-19T21:25:20.102Z,101323.60
2018-07-19T21:27:47.760Z,101329.81
2018-07-19T21:30:15.444Z,101327.78
2018-07-19T21:32:43.130Z,101328.44
2018-07-19T21:35:10.826Z,101324.23
2018-07-19T21:37:38.507Z,101316.48
2018-07-19T21:40:06.242Z,101313.55
2018-07-19T21:42:33.915Z,101317.25
2018-07-19T21:45:01.568Z,101310.97
2018-07-19T21:47:29.240Z,101313.67
2018-07-19T21:49:56.903Z,101314.51
2018-07-19T21:52:24.557Z,101317.19
2018-07-19T21:54:52.256Z,101318.66
2018-07-19T21:57:19.919Z,101311.33
2018-07-19T21:59:47.601Z,101315.34
2018-07-19T22:02:15.264Z,101310.77
2018-07-19T22:04:43.064Z,101312.31
2018-07-19T22:07:10.858Z,101315.13
2018-07-19T22:09:38.572Z,101313.27
2018-07-19T22:12:06.276Z,101244.67
2018-07-19T22:14:33.965Z,101313.05
2018-07-19T22:17:01.634Z,101313.41
2018-07-19T22:19:29.337Z,101312.91
2018-07-19T22:21:57.007Z,101309.67
2018-07-19T22:24:24.670Z,101312.75
2018-07-19T22:26:52.358Z,101307.89
2018-07-19T22:29:20.134Z,101308.77
2018-07-19T22:31:47.812Z,101300.55
2018-07-19T22:34:15.498Z,101303.92
2018-07-19T22:36:43.161Z,101302.31
2018-07-19T22:39:11.625Z,101303.23
2018-07-19T22:41:39.379Z,101302.86
2018-07-19T22:44:07.109Z,101302.83
2018-07-19T22:46:34.842Z,101299.91
2018-07-19T22:49:02.511Z,101295.16
2018-07-19T22:51:30.183Z,101296.20
2018-07-19T22:53:57.871Z,101299.48
2018-07-19T22:56:25.551Z,101308.24
2018-07-19T22:58:53.281Z,101304.44
2018-07-19T23:01:20.961Z,101301.51
2018-07-19T23:03:48.729Z,101266.06
2018-07-19T23:06:16.515Z,101298.75
2018-07-19T23:08:44.185Z,101299.89
2018-07-19T23:11:11.855Z,101305.27
2018-07-19T23:13:39.526Z,101302.64
2018-07-19T23:16:07.741Z,101300.27
2018-07-19T23:18:35.412Z,101298.92
2018-07-19T23:21:03.097Z,101294.48
2018-07-19T23:23:30.761Z,101299.55
2018-07-19T23:25:58.447Z,101289.69
2018-07-19T23:28:26.173Z,101290.38
2018-07-19T23:30:53.971Z,101289.23
2018-07-19T23:33:21.723Z,101295.08
2018-07-19T23:35:57.660Z,101295.55
2018-07-19T23:38:29.481Z,101297.14
2018-07-19T23:40:58.429Z,101296.38
2018-07-19T23:43:33.881Z,101300.06
2018-07-19T23:46:06.321Z,101295.89
2018-07-19T23:48:34.063Z,101289.58
2018-07-19T23:51:01.733Z,101294.25
2018-07-19T23:53:29.398Z,101262.31
2018-07-19T23:55:57.054Z,101287.46
2018-07-19T23:58:24.733Z,101297.60
